Latest Weather Observations for Laverton

IDW60801

Issued at 7:32 am WST Monday 22 December 2014 (issued every 30 minutes, with the page automatically refreshed every 10 minutes)

About weather observations | Map of weather stations | Latest weather observations for WA | Other Formats
Station Details ID: 012305 Name: LAVERTON AERO Lat: -28.61 Lon: 122.42 Height: 464.3 m
Data from the previous 72 hours. | See also: Recent months at Laverton
Date/Time
WST
Temp
°C
App
Temp
°C
Dew
Point
Rel
Hum
%
Delta-T
°C
Wind Press
QNH
hPa
Press
MSL
hPa
Rain
since 9 am
mm
Dir
 
Spd
km/h
Gust
km/h
Spd
kts
Gust
kts
22/07:30am 19.6 15.2 10.3 55 5.1 SE 24 32 13 17 1017.1 1014.1 0.0
22/07:00am 18.9 14.6 10.7 59 4.5 SE 24 30 13 16 1017.0 1014.0 0.0
22/06:30am 18.6 14.7 10.9 61 4.3 SE 22 32 12 17 1016.6 1013.6 0.0
22/06:00am 17.5 14.1 11.1 66 3.5 SE 20 26 11 14 1016.1 1013.2 0.0
22/05:30am 17.1 14.1 10.7 66 3.5 SE 17 20 9 11 1015.6 1012.7 0.0
22/05:00am 16.9 13.9 10.7 67 3.4 SE 17 22 9 12 1015.3 1012.4 0.0
22/04:30am 16.9 13.9 10.7 67 3.4 SE 17 22 9 12 1014.9 1011.9 0.0
22/04:00am 17.1 13.7 10.7 66 3.5 SE 19 24 10 13 1014.6 1011.6 0.0
22/03:30am 17.4 13.8 10.5 64 3.8 SE 20 26 11 14 1014.6 1011.6 0.0
22/03:00am 17.7 13.2 10.1 61 4.1 SE 24 32 13 17 1014.6 1011.6 0.0
22/02:30am 18.2 14.4 9.8 58 4.5 SE 20 32 11 17 1014.6 1011.6 0.0
22/02:00am 18.6 14.1 9.9 57 4.7 SE 24 33 13 18 1014.6 1011.6 0.0
22/01:30am 18.9 15.1 9.9 56 4.9 SE 20 28 11 15 1014.5 1011.5 0.0
22/01:00am 19.3 14.7 9.8 54 5.2 SE 24 35 13 19 1014.6 1011.6 0.0
22/12:30am 19.7 15.5 9.6 52 5.5 SE 22 33 12 18 1014.7 1011.7 0.0
22/12:00am 20.1 16.3 9.9 52 5.6 SE 20 32 11 17 1014.9 1011.9 0.0
 
Date/Time
WST
Temp
°C
App
Temp
°C
Dew
Point
Rel
Hum
%
Delta-T
°C
Wind Press
QNH
hPa
Press
MSL
hPa
Rain
since 9 am
mm
Dir
 
Spd
km/h
Gust
km/h
Spd
kts
Gust
kts
21/11:30pm 20.5 16.5 10.3 52 5.6 SE 22 33 12 18 1015.0 1012.0 0.0
21/11:00pm 20.9 17.4 11.0 53 5.6 SE 20 26 11 14 1015.3 1012.4 0.0
21/10:30pm 21.4 17.5 12.0 55 5.4 SE 24 33 13 18 1015.2 1012.2 0.0
21/10:00pm 21.3 19.6 14.7 66 4.0 SE 17 22 9 12 1015.0 1012.0 0.0
21/09:30pm 21.4 19.8 15.0 67 3.9 SSE 17 22 9 12 1014.9 1011.9 0.0
21/09:00pm 21.5 19.4 15.1 67 3.9 SE 20 32 11 17 1014.7 1011.7 0.0
21/08:30pm 21.6 18.3 15.0 66 4.0 SE 26 32 14 17 1014.3 1011.3 0.0
21/08:00pm 21.9 18.6 15.0 65 4.2 SSE 26 33 14 18 1013.8 1010.9 0.0
21/07:30pm 22.1 18.8 15.0 64 4.3 SSE 26 37 14 20 1013.3 1010.4 0.0
21/07:00pm 22.6 19.0 15.2 63 4.5 SSE 28 39 15 21 1012.6 1009.6 0.0
21/06:30pm 22.8 18.2 15.1 62 4.7 SSE 33 43 18 23 1012.4 1009.4 0.0
21/06:00pm 23.7 19.1 15.2 59 5.2 SSE 33 43 18 23 1011.8 1008.9 0.0
21/05:30pm 25.1 20.2 15.4 55 6.0 S 35 44 19 24 1011.5 1008.6 0.0
21/05:00pm 25.9 21.2 15.9 54 6.2 S 35 46 19 25 1011.1 1008.1 0.0
21/04:30pm 27.8 23.3 15.5 47 7.7 S 33 46 18 25 1010.6 1007.6 0.0
21/04:00pm 27.5 23.3 15.8 48 7.3 SSW 32 46 17 25 1010.2 1007.2 0.0
21/03:30pm 28.5 24.5 16.1 47 7.8 SSW 32 44 17 24 1010.2 1007.2 0.0
21/03:15pm 28.0 24.3 16.0 48 7.5 SSW 30 48 16 26 1010.3 1007.3 0.0
21/03:00pm 28.4 24.2 16.3 47 7.7 SSW 33 50 18 27 1010.3 1007.3 0.0
21/02:30pm 27.6 23.6 16.2 49 7.2 S 32 41 17 22 1010.5 1007.5 0.0
21/02:00pm 27.6 24.6 16.9 52 6.8 SSW 28 37 15 20 1010.6 1007.6 0.0
21/01:30pm 26.9 22.9 16.8 54 6.4 S 33 43 18 23 1010.8 1007.8 0.0
21/01:00pm 27.9 23.8 17.4 52 6.7 SSW 35 48 19 26 1010.8 1007.8 0.0
21/12:30pm 27.7 23.7 17.5 53 6.5 SSW 35 50 19 27 1010.8 1007.8 0.0
21/12:00pm 28.7 25.9 18.2 53 6.8 S 30 43 16 23 1010.4 1007.4 0.0
21/11:30am 29.4 27.2 18.8 53 7.0 SSW 28 39 15 21 1010.3 1007.3 0.0
21/11:00am 28.4 25.6 19.1 57 6.1 SSW 32 46 17 25 1010.3 1007.3 0.0
21/10:48am 28.3 25.7 18.7 56 6.3 SW 30 50 16 27 1010.0 1007.0 0.0
21/10:30am 29.9 28.8 18.7 51 7.4 SSW 22 32 12 17 1010.1 1007.1 0.0
21/10:00am 28.9 29.2 18.7 54 6.7 SW 15 20 8 11 1010.0 1007.0 0.0
21/09:30am 27.8 28.7 19.3 60 5.6 W 13 20 7 11 1010.1 1007.1 0.0
21/09:00am 27.2 29.1 19.8 64 4.9 WNW 9 17 5 9 1009.9 1006.9 5.8
21/08:30am 27.1 28.3 19.9 64 4.8 NNW 13 17 7 9 1009.7 1006.7 5.8
21/08:00am 26.2 27.9 20.1 69 4.1 N 11 20 6 11 1009.9 1006.9 5.8
21/07:30am 25.6 26.5 19.3 68 4.1 NNE 13 24 7 13 1009.9 1006.9 5.8
21/07:00am 25.4 26.3 19.3 69 4.0 NNE 13 20 7 11 1009.9 1006.9 5.8
21/06:30am 24.1 23.6 19.0 73 3.3 NE 20 30 11 16 1009.7 1006.7 5.8
21/06:00am 23.1 22.4 18.2 74 3.1 NE 19 26 10 14 1009.5 1006.6 5.8
21/05:30am 22.3 22.0 18.3 78 2.6 NE 17 24 9 13 1009.3 1006.3 5.8
21/05:00am 21.9 21.1 18.1 79 2.4 NE 19 24 10 13 1008.9 1005.9 5.8
21/04:30am 21.9 21.8 17.9 78 2.5 ENE 15 20 8 11 1008.7 1005.7 5.8
21/04:00am 22.1 21.9 17.7 76 2.8 ENE 15 20 8 11 1008.6 1005.6 5.8
21/03:30am 22.5 22.2 17.4 73 3.2 ENE 15 20 8 11 1008.5 1005.5 5.8
21/03:00am 22.8 22.7 17.0 70 3.6 ENE 13 17 7 9 1008.3 1005.3 5.8
21/02:30am 23.1 22.7 17.1 69 3.8 ENE 15 20 8 11 1008.3 1005.3 5.8
21/02:00am 22.9 22.5 17.1 70 3.6 ENE 15 19 8 10 1008.3 1005.3 5.8
21/01:30am 22.7 23.0 17.8 74 3.1 ENE 13 17 7 9 1008.5 1005.5 5.8
21/01:00am 23.0 23.3 17.9 73 3.2 NE 13 17 7 9 1008.5 1005.5 5.8
21/12:30am 22.6 23.8 18.2 76 2.8 NE 9 11 5 6 1008.5 1005.5 5.8
21/12:00am 23.5 24.4 17.5 69 3.8 NNE 9 11 5 6 1008.2 1005.2 5.8
 
Date/Time
WST
Temp
°C
App
Temp
°C
Dew
Point
Rel
Hum
%
Delta-T
°C
Wind Press
QNH
hPa
Press
MSL
hPa
Rain
since 9 am
mm
Dir
 
Spd
km/h
Gust
km/h
Spd
kts
Gust
kts
20/11:30pm 24.1 23.8 17.4 66 4.2 SE 15 22 8 12 1008.4 1005.4 5.8
20/11:00pm 24.0 22.7 18.2 70 3.7 SSE 22 37 12 20 1008.7 1005.7 5.8
20/10:30pm 23.7 24.7 18.6 73 3.3 WNW 11 15 6 8 1007.8 1004.8 5.8
20/10:00pm 23.4 25.0 18.3 73 3.3 NW 7 13 4 7 1007.4 1004.3 5.8
20/09:30pm 24.1 24.3 17.6 67 4.1 N 13 20 7 11 1007.2 1004.2 5.8
20/09:00pm 24.9 23.6 16.9 61 5.1 N 19 26 10 14 1006.8 1003.8 5.8
20/08:30pm 25.1 25.7 16.8 60 5.2 N 9 17 5 9 1006.6 1003.6 5.8
20/08:00pm 24.9 23.7 17.6 64 4.7 NNE 20 30 11 16 1006.4 1003.4 5.8
20/07:30pm 25.7 24.0 17.1 59 5.4 NNE 22 32 12 17 1006.6 1003.6 5.8
20/07:00pm 26.6 26.9 17.9 59 5.6 NNE 13 15 7 8 1006.0 1003.0 5.8
20/06:30pm 27.6 28.2 17.7 54 6.4 N 11 15 6 8 1005.5 1002.4 5.8
20/06:00pm 28.3 26.8 16.2 47 7.7 N 19 28 10 15 1004.9 1001.9 5.8
20/05:52pm 27.8 23.3 15.5 47 7.7 NNE 33 65 18 35 1004.4 1001.4 5.8
20/05:44pm 27.3 23.8 15.6 48 7.3 NE 28 59 15 32 1004.6 1001.6 5.8
20/05:30pm 23.6 20.4 18.5 73 3.3 NE 33 44 18 24 1006.3 1003.3 5.8
20/05:17pm 24.6 23.8 18.1 67 4.2 NNE 19 37 10 20 1007.1 1004.1 5.8
20/05:00pm 24.7 27.3 20.0 75 3.1 NE 6 15 3 8 1008.4 1005.4 5.6
20/04:40pm 27.0 25.7 19.1 62 5.2 ESE 24 59 13 32 1008.7 1005.7 2.8
20/04:39pm 28.4 28.3 20.7 63 5.2 ESE 22 59 12 32 1008.2 1005.2 2.8
20/04:30pm 30.4 31.0 20.3 54 6.8 W 17 30 9 16 1005.2 1002.1 2.4
20/04:25pm 31.6 33.5 20.5 51 7.5 N 11 26 6 14 1004.6 1001.6 1.6
20/04:00pm 36.7 35.8 15.8 29 13.5 NNW 15 28 8 15 1004.2 1001.2 0.0
20/03:30pm 37.1 35.5 15.0 27 14.1 NW 17 32 9 17 1005.3 1002.2 0.0
20/03:00pm 37.4 35.9 16.4 29 13.7 NNW 19 32 10 17 1006.1 1003.1 0.0
20/02:30pm 36.3 33.9 16.5 31 12.9 NW 24 35 13 19 1007.4 1004.3 0.0
20/02:00pm 35.7 33.5 15.9 30 12.8 NW 22 33 12 18 1008.1 1005.1 0.0
20/01:30pm 34.8 32.9 15.7 32 12.2 NW 20 32 11 17 1008.6 1005.6 0.0
20/01:00pm 34.6 32.2 16.4 33 11.8 NW 24 41 13 22 1009.2 1006.2 0.0
20/12:30pm 34.2 31.3 17.0 36 11.2 NW 28 41 15 22 1009.4 1006.5 0.0
20/12:00pm 32.4 31.3 18.6 44 9.1 NNW 22 32 12 17 1010.0 1007.0 0.0
20/11:30am 30.6 29.3 19.0 50 7.7 N 24 32 13 17 1010.3 1007.3 0.0
20/11:00am 29.3 27.2 19.0 53 6.8 N 28 33 15 18 1010.9 1007.9 0.0
20/10:30am 29.2 27.2 19.2 54 6.6 N 28 35 15 19 1012.1 1009.1 0.0
20/10:00am 28.3 25.3 18.7 56 6.3 N 32 41 17 22 1012.2 1009.2 0.0
20/09:30am 27.6 24.7 18.9 59 5.7 N 32 41 17 22 1012.2 1009.2 0.0
20/09:00am 26.9 23.7 18.5 60 5.5 NNE 33 43 18 23 1012.2 1009.2 0.6
20/08:30am 25.9 25.0 19.8 69 4.0 NE 24 33 13 18 1013.3 1010.4 0.6
20/08:00am 25.2 25.7 20.0 73 3.4 ENE 17 26 9 14 1013.9 1011.0 0.6
20/07:30am 23.1 23.7 20.2 84 1.9 SE 17 20 9 11 1014.7 1011.7 0.6
20/07:00am 22.2 23.8 20.7 91 1.0 NE 13 17 7 9 1014.6 1011.6 0.6
20/06:37am 23.2 22.5 19.4 79 2.5 WNW 22 39 12 21 1016.6 1013.6 0.2
20/06:30am 24.2 24.7 18.4 70 3.7 NNW 13 20 7 11 1015.2 1012.2 0.0
20/06:00am 24.0 23.1 18.2 70 3.7 NNE 20 24 11 13 1013.0 1010.0 0.0
20/05:30am 23.8 23.5 18.2 71 3.6 NE 17 22 9 12 1013.0 1010.0 0.0
20/05:00am 23.7 22.8 18.1 71 3.6 NE 20 30 11 16 1012.6 1009.6 0.0
20/04:30am 23.6 21.1 18.0 71 3.6 NNE 28 35 15 19 1012.2 1009.2 0.0
20/04:00am 23.6 21.6 18.3 72 3.4 NE 26 35 14 19 1011.6 1008.7 0.0
20/03:30am 23.3 21.4 18.6 75 3.0 NE 26 35 14 19 1012.2 1009.2 0.0
20/03:00am 24.0 23.2 18.0 69 3.8 NE 19 26 10 14 1012.5 1009.5 0.0
20/02:30am 23.7 23.3 18.1 71 3.6 NNE 17 24 9 13 1013.1 1010.1 0.0
20/02:00am 24.0 23.3 18.2 70 3.7 NE 19 26 10 14 1013.5 1010.6 0.0
20/01:30am 24.3 22.9 18.0 68 4.0 NE 22 32 12 17 1013.3 1010.4 0.0
20/01:00am 24.7 22.4 17.7 65 4.5 NE 26 35 14 19 1012.9 1009.9 0.0
20/12:30am 25.1 23.6 17.6 63 4.8 NE 22 28 12 15 1013.6 1010.7 0.0
20/12:00am 25.7 24.9 17.1 59 5.4 NNE 17 22 9 12 1013.9 1011.0 0.0
 
Date/Time
WST
Temp
°C
App
Temp
°C
Dew
Point
Rel
Hum
%
Delta-T
°C
Wind Press
QNH
hPa
Press
MSL
hPa
Rain
since 9 am
mm
Dir
 
Spd
km/h
Gust
km/h
Spd
kts
Gust
kts
19/11:30pm 25.6 24.6 17.5 61 5.2 NNE 19 28 10 15 1014.2 1011.2 0.0
19/11:00pm 25.7 24.9 17.9 62 5.0 N 19 30 10 16 1014.5 1011.5 0.0
19/10:30pm 25.0 24.0 18.9 69 4.0 NNE 22 30 12 16 1014.0 1011.1 0.0
19/10:00pm 25.1 24.5 18.8 68 4.1 N 20 28 11 15 1015.6 1012.7 0.0
19/09:30pm 24.8 24.8 19.0 70 3.8 NNW 17 22 9 12 1016.3 1013.4 0.0
19/09:00pm 26.0 25.1 18.2 62 5.0 N 20 28 11 15 1016.3 1013.4 0.0
19/08:30pm 27.4 25.6 17.0 53 6.6 NNE 22 30 12 16 1015.3 1012.4 0.0
19/08:00pm 28.0 25.9 16.3 49 7.4 NNE 22 30 12 16 1014.6 1011.6 0.0
19/07:30pm 27.6 25.8 16.9 52 6.8 NE 22 30 12 16 1013.6 1010.7 0.0
19/07:00pm 27.9 27.6 18.3 56 6.2 NE 17 20 9 11 1013.6 1010.7 0.0
19/06:30pm 28.7 29.8 17.2 49 7.4 ENE 7 9 4 5 1013.6 1010.7 0.0
19/06:00pm 28.3 28.6 17.8 53 6.8 E 13 15 7 8 1013.3 1010.4 0.0
19/05:30pm 28.5 28.6 17.4 51 7.1 NW 13 24 7 13 1013.7 1010.8 0.0
19/05:00pm 33.1 31.6 13.2 30 12.2 NW 13 28 7 15 1012.6 1009.6 0.0
19/04:46pm 33.5 29.5 11.9 27 13.0 NNW 24 50 13 27 1012.0 1009.0 0.0
19/04:45pm 33.5 30.5 12.5 28 12.8 NNW 20 41 11 22 1012.0 1009.0 0.0
19/04:30pm 35.7 32.3 10.7 22 14.9 ENE 19 39 10 21 1011.4 1008.5 0.0
19/04:00pm 35.8 32.3 10.1 21 15.2 ENE 19 30 10 16 1010.9 1007.9 0.0
19/03:30pm 36.0 31.5 10.2 21 15.3 ENE 24 37 13 20 1010.9 1007.9 0.0
19/03:00pm 37.2 32.6 9.7 19 16.3 ENE 24 33 13 18 1011.3 1008.3 0.0
19/02:30pm 37.0 32.6 10.3 20 15.9 ENE 24 43 13 23 1012.2 1009.2 0.0
19/02:00pm 37.1 32.7 10.4 20 16.0 NNE 24 35 13 19 1013.0 1010.0 0.0
19/01:30pm 35.7 31.8 10.7 22 14.9 NNE 22 32 12 17 1013.7 1010.8 0.0
19/01:00pm 35.3 32.0 11.0 23 14.6 NE 19 32 10 17 1014.4 1011.4 0.0
19/12:30pm 35.9 31.3 10.9 22 15.0 NE 26 39 14 21 1014.9 1011.9 0.0
19/12:00pm 34.8 30.5 10.6 23 14.4 NNE 24 33 13 18 1015.7 1012.8 0.0
19/11:30am 32.7 28.8 10.7 26 13.0 NE 22 33 12 18 1016.3 1013.4 0.0
19/11:00am 32.6 27.7 10.0 25 13.2 NE 26 41 14 22 1016.6 1013.6 0.0
19/10:30am 33.7 28.5 10.3 24 13.8 ENE 28 44 15 24 1016.9 1013.9 0.0
19/10:00am 32.9 27.2 9.7 24 13.5 ENE 30 46 16 25 1017.1 1014.1 0.0
19/09:30am 30.2 25.6 9.7 28 11.8 ENE 24 33 13 18 1017.5 1014.6 0.0
19/09:00am 28.5 23.0 9.2 30 10.9 E 28 39 15 21 1017.8 1014.9 0.0
19/08:30am 27.5 21.9 8.9 31 10.4 ENE 28 39 15 21 1018.0 1015.1 0.0
19/08:00am 26.6 20.7 9.0 33 9.8 ENE 30 39 16 21 1018.0 1015.1 0.0

Other Formats:

Comma delimited format used in spreadsheet applications
http://www.bom.gov.au/fwo/IDW60801/IDW60801.94449.axf

JavaScript Object Notation format (JSON) in row-major order
http://www.bom.gov.au/fwo/IDW60801/IDW60801.94449.json